sensor_id;sensor_type;location;lat;lon;timestamp;temperature;humidity
30381;DHT22;17169;50.966;11.038;2023-04-06T00:01:08;1.90;90.10
30381;DHT22;17169;50.966;11.038;2023-04-06T00:04:10;1.90;90.20
30381;DHT22;17169;50.966;11.038;2023-04-06T00:07:13;1.90;90.20
30381;DHT22;17169;50.966;11.038;2023-04-06T00:10:16;1.80;90.20
30381;DHT22;17169;50.966;11.038;2023-04-06T00:13:20;1.80;90.40
30381;DHT22;17169;50.966;11.038;2023-04-06T00:16:22;1.70;90.50
30381;DHT22;17169;50.966;11.038;2023-04-06T00:19:25;1.70;90.50
30381;DHT22;17169;50.966;11.038;2023-04-06T00:22:27;1.70;90.70
30381;DHT22;17169;50.966;11.038;2023-04-06T00:25:30;1.70;90.70
30381;DHT22;17169;50.966;11.038;2023-04-06T00:28:34;1.60;90.80
30381;DHT22;17169;50.966;11.038;2023-04-06T00:31:36;1.60;90.90
30381;DHT22;17169;50.966;11.038;2023-04-06T00:34:39;1.50;91.00
30381;DHT22;17169;50.966;11.038;2023-04-06T00:37:41;1.60;91.10
30381;DHT22;17169;50.966;11.038;2023-04-06T00:40:44;1.50;91.10
30381;DHT22;17169;50.966;11.038;2023-04-06T00:43:48;1.60;91.20
30381;DHT22;17169;50.966;11.038;2023-04-06T00:46:50;1.60;91.20
30381;DHT22;17169;50.966;11.038;2023-04-06T00:49:53;1.60;91.20
30381;DHT22;17169;50.966;11.038;2023-04-06T00:52:56;1.60;91.20
30381;DHT22;17169;50.966;11.038;2023-04-06T00:55:58;1.60;91.40
30381;DHT22;17169;50.966;11.038;2023-04-06T00:59:02;1.50;91.60
30381;DHT22;17169;50.966;11.038;2023-04-06T01:02:05;1.50;91.80
30381;DHT22;17169;50.966;11.038;2023-04-06T01:05:08;1.50;91.90
30381;DHT22;17169;50.966;11.038;2023-04-06T01:08:11;1.40;92.30
30381;DHT22;17169;50.966;11.038;2023-04-06T01:11:13;1.40;92.10
30381;DHT22;17169;50.966;11.038;2023-04-06T01:14:17;1.40;92.30
30381;DHT22;17169;50.966;11.038;2023-04-06T01:17:20;1.40;92.30
30381;DHT22;17169;50.966;11.038;2023-04-06T01:20:22;1.40;92.40
30381;DHT22;17169;50.966;11.038;2023-04-06T01:23:26;1.30;92.40
30381;DHT22;17169;50.966;11.038;2023-04-06T01:26:29;1.20;92.60
30381;DHT22;17169;50.966;11.038;2023-04-06T01:29:31;1.20;92.70
30381;DHT22;17169;50.966;11.038;2023-04-06T01:32:34;1.10;93.00
30381;DHT22;17169;50.966;11.038;2023-04-06T01:35:37;1.00;93.10
30381;DHT22;17169;50.966;11.038;2023-04-06T01:38:41;1.00;93.20
30381;DHT22;17169;50.966;11.038;2023-04-06T01:41:43;1.00;93.40
30381;DHT22;17169;50.966;11.038;2023-04-06T01:44:48;1.00;93.50
30381;DHT22;17169;50.966;11.038;2023-04-06T01:47:50;0.90;93.50
30381;DHT22;17169;50.966;11.038;2023-04-06T01:50:53;0.90;93.70
30381;DHT22;17169;50.966;11.038;2023-04-06T01:53:56;0.80;93.80
30381;DHT22;17169;50.966;11.038;2023-04-06T01:56:59;0.70;94.00
30381;DHT22;17169;50.966;11.038;2023-04-06T02:00:02;0.70;94.20
30381;DHT22;17169;50.966;11.038;2023-04-06T02:03:05;0.70;94.20
30381;DHT22;17169;50.966;11.038;2023-04-06T02:06:07;0.70;94.40
30381;DHT22;17169;50.966;11.038;2023-04-06T02:09:11;0.70;94.50
30381;DHT22;17169;50.966;11.038;2023-04-06T02:12:14;0.70;94.50
30381;DHT22;17169;50.966;11.038;2023-04-06T02:15:16;0.70;94.60
30381;DHT22;17169;50.966;11.038;2023-04-06T02:18:19;0.60;94.60
30381;DHT22;17169;50.966;11.038;2023-04-06T02:21:21;0.60;94.70
30381;DHT22;17169;50.966;11.038;2023-04-06T02:24:25;0.60;94.80
30381;DHT22;17169;50.966;11.038;2023-04-06T02:27:28;0.60;94.80
30381;DHT22;17169;50.966;11.038;2023-04-06T02:30:30;0.60;94.90
30381;DHT22;17169;50.966;11.038;2023-04-06T02:33:33;0.60;95.00
30381;DHT22;17169;50.966;11.038;2023-04-06T02:36:36;0.60;95.00
30381;DHT22;17169;50.966;11.038;2023-04-06T02:39:40;0.60;95.00
30381;DHT22;17169;50.966;11.038;2023-04-06T02:42:42;0.70;95.00
30381;DHT22;17169;50.966;11.038;2023-04-06T02:45:45;0.70;95.00
30381;DHT22;17169;50.966;11.038;2023-04-06T02:48:47;0.70;95.20
30381;DHT22;17169;50.966;11.038;2023-04-06T02:51:50;0.70;95.30
30381;DHT22;17169;50.966;11.038;2023-04-06T02:54:54;0.70;95.40
30381;DHT22;17169;50.966;11.038;2023-04-06T02:57:56;0.70;95.40
30381;DHT22;17169;50.966;11.038;2023-04-06T03:00:59;0.70;95.40
30381;DHT22;17169;50.966;11.038;2023-04-06T03:04:01;0.70;95.50
30381;DHT22;17169;50.966;11.038;2023-04-06T03:07:04;0.70;95.50
30381;DHT22;17169;50.966;11.038;2023-04-06T03:10:08;0.70;95.60
30381;DHT22;17169;50.966;11.038;2023-04-06T03:13:11;0.70;95.70
30381;DHT22;17169;50.966;11.038;2023-04-06T03:16:13;0.70;95.60
30381;DHT22;17169;50.966;11.038;2023-04-06T03:19:16;0.80;95.60
30381;DHT22;17169;50.966;11.038;2023-04-06T03:22:19;0.70;95.70
30381;DHT22;17169;50.966;11.038;2023-04-06T03:25:23;0.70;95.80
30381;DHT22;17169;50.966;11.038;2023-04-06T03:28:26;0.60;95.90
30381;DHT22;17169;50.966;11.038;2023-04-06T03:31:28;0.60;96.00
30381;DHT22;17169;50.966;11.038;2023-04-06T03:34:31;0.60;96.10
30381;DHT22;17169;50.966;11.038;2023-04-06T03:37:33;0.60;96.20
30381;DHT22;17169;50.966;11.038;2023-04-06T03:40:37;0.60;96.30
30381;DHT22;17169;50.966;11.038;2023-04-06T03:43:40;0.60;96.40
30381;DHT22;17169;50.966;11.038;2023-04-06T03:46:42;0.60;96.50
30381;DHT22;17169;50.966;11.038;2023-04-06T03:49:45;0.50;96.50
30381;DHT22;17169;50.966;11.038;2023-04-06T03:52:47;0.50;96.30
30381;DHT22;17169;50.966;11.038;2023-04-06T03:55:51;0.50;96.30
30381;DHT22;17169;50.966;11.038;2023-04-06T03:58:54;0.50;96.50
30381;DHT22;17169;50.966;11.038;2023-04-06T04:01:56;0.50;96.30
30381;DHT22;17169;50.966;11.038;2023-04-06T04:04:59;0.50;96.40
30381;DHT22;17169;50.966;11.038;2023-04-06T04:08:01;0.50;96.30
30381;DHT22;17169;50.966;11.038;2023-04-06T04:11:05;0.50;96.30
30381;DHT22;17169;50.966;11.038;2023-04-06T04:14:07;0.50;96.30
30381;DHT22;17169;50.966;11.038;2023-04-06T04:17:10;0.50;96.50
30381;DHT22;17169;50.966;11.038;2023-04-06T04:20:13;0.50;96.40
30381;DHT22;17169;50.966;11.038;2023-04-06T04:23:15;0.60;96.40
30381;DHT22;17169;50.966;11.038;2023-04-06T04:26:19;0.60;96.40
30381;DHT22;17169;50.966;11.038;2023-04-06T04:29:22;0.60;96.40
30381;DHT22;17169;50.966;11.038;2023-04-06T04:32:24;0.50;96.50
30381;DHT22;17169;50.966;11.038;2023-04-06T04:35:28;0.50;96.90
30381;DHT22;17169;50.966;11.038;2023-04-06T04:38:30;0.50;96.70
30381;DHT22;17169;50.966;11.038;2023-04-06T04:41:34;0.50;96.70
30381;DHT22;17169;50.966;11.038;2023-04-06T04:44:37;0.60;96.90
30381;DHT22;17169;50.966;11.038;2023-04-06T04:47:40;0.60;96.90
30381;DHT22;17169;50.966;11.038;2023-04-06T04:50:42;0.60;96.90
30381;DHT22;17169;50.966;11.038;2023-04-06T04:53:45;0.60;96.90
30381;DHT22;17169;50.966;11.038;2023-04-06T04:56:49;0.60;97.00
30381;DHT22;17169;50.966;11.038;2023-04-06T04:59:52;0.60;97.00
30381;DHT22;17169;50.966;11.038;2023-04-06T05:02:55;0.60;97.00
30381;DHT22;17169;50.966;11.038;2023-04-06T05:05:57;0.60;97.00
30381;DHT22;17169;50.966;11.038;2023-04-06T05:09:00;0.60;97.10
30381;DHT22;17169;50.966;11.038;2023-04-06T05:12:03;0.60;97.10
30381;DHT22;17169;50.966;11.038;2023-04-06T05:15:07;0.60;97.10
30381;DHT22;17169;50.966;11.038;2023-04-06T05:18:10;0.70;97.20
30381;DHT22;17169;50.966;11.038;2023-04-06T05:21:13;0.70;97.20
30381;DHT22;17169;50.966;11.038;2023-04-06T05:24:15;0.70;97.20
30381;DHT22;17169;50.966;11.038;2023-04-06T05:27:19;0.80;97.30
30381;DHT22;17169;50.966;11.038;2023-04-06T05:30:22;0.80;97.30
30381;DHT22;17169;50.966;11.038;2023-04-06T05:33:24;0.80;97.30
30381;DHT22;17169;50.966;11.038;2023-04-06T05:36:27;0.90;97.50
30381;DHT22;17169;50.966;11.038;2023-04-06T05:39:29;0.90;97.50
30381;DHT22;17169;50.966;11.038;2023-04-06T05:42:37;1.00;97.70
30381;DHT22;17169;50.966;11.038;2023-04-06T05:45:40;1.10;97.70
30381;DHT22;17169;50.966;11.038;2023-04-06T05:48:42;1.20;97.70
30381;DHT22;17169;50.966;11.038;2023-04-06T05:51:45;1.20;97.70
30381;DHT22;17169;50.966;11.038;2023-04-06T05:54:47;1.30;97.60
30381;DHT22;17169;50.966;11.038;2023-04-06T05:57:51;1.40;97.60
30381;DHT22;17169;50.966;11.038;2023-04-06T06:00:56;1.50;97.60
30381;DHT22;17169;50.966;11.038;2023-04-06T06:04:00;1.70;97.50
30381;DHT22;17169;50.966;11.038;2023-04-06T06:07:03;1.80;97.40
30381;DHT22;17169;50.966;11.038;2023-04-06T06:10:07;1.90;97.50
30381;DHT22;17169;50.966;11.038;2023-04-06T06:13:12;2.00;97.50
30381;DHT22;17169;50.966;11.038;2023-04-06T06:16:14;2.20;97.40
30381;DHT22;17169;50.966;11.038;2023-04-06T06:19:17;2.30;97.40
30381;DHT22;17169;50.966;11.038;2023-04-06T06:22:19;2.50;97.20
30381;DHT22;17169;50.966;11.038;2023-04-06T06:25:22;2.60;97.00
30381;DHT22;17169;50.966;11.038;2023-04-06T06:28:26;2.70;96.80
30381;DHT22;17169;50.966;11.038;2023-04-06T06:31:29;2.80;96.40
30381;DHT22;17169;50.966;11.038;2023-04-06T06:34:31;3.00;95.80
30381;DHT22;17169;50.966;11.038;2023-04-06T06:37:34;3.10;94.90
30381;DHT22;17169;50.966;11.038;2023-04-06T06:40:36;3.20;94.70
30381;DHT22;17169;50.966;11.038;2023-04-06T06:43:40;3.40;94.60
30381;DHT22;17169;50.966;11.038;2023-04-06T06:46:42;3.50;94.40
30381;DHT22;17169;50.966;11.038;2023-04-06T06:49:45;3.60;94.30
30381;DHT22;17169;50.966;11.038;2023-04-06T06:52:47;3.80;94.20
30381;DHT22;17169;50.966;11.038;2023-04-06T06:55:50;3.90;94.20
30381;DHT22;17169;50.966;11.038;2023-04-06T06:58:54;4.10;94.10
30381;DHT22;17169;50.966;11.038;2023-04-06T07:01:56;4.30;93.70
30381;DHT22;17169;50.966;11.038;2023-04-06T07:04:59;4.50;93.80
30381;DHT22;17169;50.966;11.038;2023-04-06T07:08:01;4.60;92.80
30381;DHT22;17169;50.966;11.038;2023-04-06T07:11:04;4.70;92.60
30381;DHT22;17169;50.966;11.038;2023-04-06T07:14:08;4.90;92.60
30381;DHT22;17169;50.966;11.038;2023-04-06T07:17:10;5.10;92.90
30381;DHT22;17169;50.966;11.038;2023-04-06T07:20:13;5.20;93.10
30381;DHT22;17169;50.966;11.038;2023-04-06T07:23:16;5.40;93.00
30381;DHT22;17169;50.966;11.038;2023-04-06T07:26:18;5.50;92.80
30381;DHT22;17169;50.966;11.038;2023-04-06T07:29:22;5.60;92.60
30381;DHT22;17169;50.966;11.038;2023-04-06T07:32:25;5.70;92.50
30381;DHT22;17169;50.966;11.038;2023-04-06T07:35:27;5.80;92.50
30381;DHT22;17169;50.966;11.038;2023-04-06T07:38:31;5.90;92.20
30381;DHT22;17169;50.966;11.038;2023-04-06T07:41:33;6.10;92.00
30381;DHT22;17169;50.966;11.038;2023-04-06T07:44:37;6.20;91.90
30381;DHT22;17169;50.966;11.038;2023-04-06T07:47:39;6.30;91.60
30381;DHT22;17169;50.966;11.038;2023-04-06T07:50:42;6.50;91.10
30381;DHT22;17169;50.966;11.038;2023-04-06T07:53:44;6.60;90.80
30381;DHT22;17169;50.966;11.038;2023-04-06T07:56:47;6.80;90.90
30381;DHT22;17169;50.966;11.038;2023-04-06T07:59:51;6.90;90.40
30381;DHT22;17169;50.966;11.038;2023-04-06T08:02:54;7.00;90.20
30381;DHT22;17169;50.966;11.038;2023-04-06T08:05:56;7.20;89.30
30381;DHT22;17169;50.966;11.038;2023-04-06T08:08:59;7.30;88.80
30381;DHT22;17169;50.966;11.038;2023-04-06T08:12:01;7.50;88.20
30381;DHT22;17169;50.966;11.038;2023-04-06T08:15:06;7.60;88.20
30381;DHT22;17169;50.966;11.038;2023-04-06T08:18:08;7.70;86.90
30381;DHT22;17169;50.966;11.038;2023-04-06T08:21:11;7.90;86.80
30381;DHT22;17169;50.966;11.038;2023-04-06T08:24:13;8.10;86.00
30381;DHT22;17169;50.966;11.038;2023-04-06T08:27:16;8.20;85.20
30381;DHT22;17169;50.966;11.038;2023-04-06T08:30:20;8.40;85.30
30381;DHT22;17169;50.966;11.038;2023-04-06T08:33:22;8.50;84.10
30381;DHT22;17169;50.966;11.038;2023-04-06T08:36:25;8.60;83.00
30381;DHT22;17169;50.966;11.038;2023-04-06T08:39:27;8.80;80.00
30381;DHT22;17169;50.966;11.038;2023-04-06T08:42:32;9.00;79.40
30381;DHT22;17169;50.966;11.038;2023-04-06T08:45:38;9.10;78.30
30381;DHT22;17169;50.966;11.038;2023-04-06T08:48:42;9.30;77.20
30381;DHT22;17169;50.966;11.038;2023-04-06T08:51:44;9.40;74.90
30381;DHT22;17169;50.966;11.038;2023-04-06T08:54:47;9.50;73.80
30381;DHT22;17169;50.966;11.038;2023-04-06T08:57:50;9.60;73.40
30381;DHT22;17169;50.966;11.038;2023-04-06T09:00:56;9.70;73.10
30381;DHT22;17169;50.966;11.038;2023-04-06T09:03:59;9.80;69.00
30381;DHT22;17169;50.966;11.038;2023-04-06T09:07:02;9.80;66.80
30381;DHT22;17169;50.966;11.038;2023-04-06T09:10:05;9.80;67.10
30381;DHT22;17169;50.966;11.038;2023-04-06T09:13:08;9.90;67.50
30381;DHT22;17169;50.966;11.038;2023-04-06T09:16:12;10.00;65.50
30381;DHT22;17169;50.966;11.038;2023-04-06T09:19:14;10.00;67.10
30381;DHT22;17169;50.966;11.038;2023-04-06T09:22:17;10.10;65.70
30381;DHT22;17169;50.966;11.038;2023-04-06T09:25:21;10.20;66.00
30381;DHT22;17169;50.966;11.038;2023-04-06T09:28:24;10.20;67.00
30381;DHT22;17169;50.966;11.038;2023-04-06T09:31:29;10.20;66.50
30381;DHT22;17169;50.966;11.038;2023-04-06T09:34:34;10.30;65.60
30381;DHT22;17169;50.966;11.038;2023-04-06T09:37:36;10.40;67.50
30381;DHT22;17169;50.966;11.038;2023-04-06T09:40:48;10.50;67.20
30381;DHT22;17169;50.966;11.038;2023-04-06T09:43:51;10.60;67.70
30381;DHT22;17169;50.966;11.038;2023-04-06T09:46:55;10.80;65.30
30381;DHT22;17169;50.966;11.038;2023-04-06T09:49:59;10.80;63.60
30381;DHT22;17169;50.966;11.038;2023-04-06T09:53:02;10.80;64.00
30381;DHT22;17169;50.966;11.038;2023-04-06T09:56:06;10.90;63.90
30381;DHT22;17169;50.966;11.038;2023-04-06T09:59:22;10.90;64.40
30381;DHT22;17169;50.966;11.038;2023-04-06T10:02:34;11.00;63.80
30381;DHT22;17169;50.966;11.038;2023-04-06T10:05:43;11.10;62.90
30381;DHT22;17169;50.966;11.038;2023-04-06T10:08:50;11.00;61.90
30381;DHT22;17169;50.966;11.038;2023-04-06T10:11:55;11.00;63.60
30381;DHT22;17169;50.966;11.038;2023-04-06T10:14:58;11.10;61.70
30381;DHT22;17169;50.966;11.038;2023-04-06T10:18:03;11.10;62.10
30381;DHT22;17169;50.966;11.038;2023-04-06T10:21:08;11.10;62.10
30381;DHT22;17169;50.966;11.038;2023-04-06T10:24:11;11.10;64.90
30381;DHT22;17169;50.966;11.038;2023-04-06T10:27:14;11.30;63.70
30381;DHT22;17169;50.966;11.038;2023-04-06T10:30:17;11.30;61.40
30381;DHT22;17169;50.966;11.038;2023-04-06T10:33:21;11.40;63.10
30381;DHT22;17169;50.966;11.038;2023-04-06T10:36:25;11.40;62.20
30381;DHT22;17169;50.966;11.038;2023-04-06T10:39:28;11.40;60.50
30381;DHT22;17169;50.966;11.038;2023-04-06T10:42:36;11.40;61.00
30381;DHT22;17169;50.966;11.038;2023-04-06T10:45:39;11.50;62.30
30381;DHT22;17169;50.966;11.038;2023-04-06T10:48:45;11.60;64.40
30381;DHT22;17169;50.966;11.038;2023-04-06T10:51:52;11.70;62.60
30381;DHT22;17169;50.966;11.038;2023-04-06T10:54:55;11.80;61.70
30381;DHT22;17169;50.966;11.038;2023-04-06T10:57:58;11.90;60.20
30381;DHT22;17169;50.966;11.038;2023-04-06T11:01:01;12.00;59.70
30381;DHT22;17169;50.966;11.038;2023-04-06T11:04:05;11.90;58.80
30381;DHT22;17169;50.966;11.038;2023-04-06T11:07:10;11.90;60.70
30381;DHT22;17169;50.966;11.038;2023-04-06T11:10:21;12.00;59.80
30381;DHT22;17169;50.966;11.038;2023-04-06T11:13:24;12.00;59.50
30381;DHT22;17169;50.966;11.038;2023-04-06T11:16:29;12.10;58.40
30381;DHT22;17169;50.966;11.038;2023-04-06T11:19:34;12.20;59.90
30381;DHT22;17169;50.966;11.038;2023-04-06T11:22:36;12.40;59.80
30381;DHT22;17169;50.966;11.038;2023-04-06T11:25:51;12.50;59.90
30381;DHT22;17169;50.966;11.038;2023-04-06T11:28:53;12.60;59.80
30381;DHT22;17169;50.966;11.038;2023-04-06T11:31:59;12.70;58.00
30381;DHT22;17169;50.966;11.038;2023-04-06T11:35:03;12.70;55.50
30381;DHT22;17169;50.966;11.038;2023-04-06T11:38:06;12.70;58.10
30381;DHT22;17169;50.966;11.038;2023-04-06T11:41:08;12.80;57.10
30381;DHT22;17169;50.966;11.038;2023-04-06T11:44:11;13.00;57.30
30381;DHT22;17169;50.966;11.038;2023-04-06T11:47:13;13.20;59.00
30381;DHT22;17169;50.966;11.038;2023-04-06T11:50:17;13.40;57.50
30381;DHT22;17169;50.966;11.038;2023-04-06T11:53:19;13.50;54.60
30381;DHT22;17169;50.966;11.038;2023-04-06T11:56:26;13.50;54.70
30381;DHT22;17169;50.966;11.038;2023-04-06T11:59:29;13.80;55.10
30381;DHT22;17169;50.966;11.038;2023-04-06T12:02:31;14.10;56.60
30381;DHT22;17169;50.966;11.038;2023-04-06T12:05:35;14.30;55.00
30381;DHT22;17169;50.966;11.038;2023-04-06T12:08:38;14.50;54.70
30381;DHT22;17169;50.966;11.038;2023-04-06T12:11:41;14.70;55.20
30381;DHT22;17169;50.966;11.038;2023-04-06T12:14:43;15.00;54.10
30381;DHT22;17169;50.966;11.038;2023-04-06T12:17:45;15.10;54.40
30381;DHT22;17169;50.966;11.038;2023-04-06T12:20:49;15.10;53.70
30381;DHT22;17169;50.966;11.038;2023-04-06T12:23:52;15.30;53.10
30381;DHT22;17169;50.966;11.038;2023-04-06T12:26:54;15.40;54.40
30381;DHT22;17169;50.966;11.038;2023-04-06T12:29:58;15.50;53.20
30381;DHT22;17169;50.966;11.038;2023-04-06T12:33:00;15.50;52.20
30381;DHT22;17169;50.966;11.038;2023-04-06T12:36:04;15.50;52.60
30381;DHT22;17169;50.966;11.038;2023-04-06T12:39:13;15.70;52.30
30381;DHT22;17169;50.966;11.038;2023-04-06T12:42:16;15.90;51.20
30381;DHT22;17169;50.966;11.038;2023-04-06T12:45:19;16.00;51.80
30381;DHT22;17169;50.966;11.038;2023-04-06T12:48:21;16.10;50.80
30381;DHT22;17169;50.966;11.038;2023-04-06T12:51:27;16.30;52.80
30381;DHT22;17169;50.966;11.038;2023-04-06T12:54:30;16.30;50.90
30381;DHT22;17169;50.966;11.038;2023-04-06T12:57:32;16.30;50.60
30381;DHT22;17169;50.966;11.038;2023-04-06T13:00:35;16.60;49.30
30381;DHT22;17169;50.966;11.038;2023-04-06T13:03:38;16.60;49.80
30381;DHT22;17169;50.966;11.038;2023-04-06T13:06:42;16.90;50.40
30381;DHT22;17169;50.966;11.038;2023-04-06T13:09:44;17.10;48.60
30381;DHT22;17169;50.966;11.038;2023-04-06T13:12:48;17.10;48.70
30381;DHT22;17169;50.966;11.038;2023-04-06T13:15:51;17.20;48.70
30381;DHT22;17169;50.966;11.038;2023-04-06T13:18:53;17.30;48.70
30381;DHT22;17169;50.966;11.038;2023-04-06T13:21:57;17.40;48.00
30381;DHT22;17169;50.966;11.038;2023-04-06T13:25:00;17.50;47.90
30381;DHT22;17169;50.966;11.038;2023-04-06T13:28:02;17.50;47.60
30381;DHT22;17169;50.966;11.038;2023-04-06T13:31:05;17.80;47.50
30381;DHT22;17169;50.966;11.038;2023-04-06T13:34:09;18.50;48.00
30381;DHT22;17169;50.966;11.038;2023-04-06T13:37:13;19.50;47.10
30381;DHT22;17169;50.966;11.038;2023-04-06T13:40:16;20.30;46.20
30381;DHT22;17169;50.966;11.038;2023-04-06T13:43:18;20.80;44.80
30381;DHT22;17169;50.966;11.038;2023-04-06T13:46:21;21.30;45.10
30381;DHT22;17169;50.966;11.038;2023-04-06T13:49:25;22.00;42.70
30381;DHT22;17169;50.966;11.038;2023-04-06T13:52:29;22.60;42.30
30381;DHT22;17169;50.966;11.038;2023-04-06T13:55:31;23.20;41.70
30381;DHT22;17169;50.966;11.038;2023-04-06T13:58:34;24.10;41.40
30381;DHT22;17169;50.966;11.038;2023-04-06T14:01:37;25.20;41.20
30381;DHT22;17169;50.966;11.038;2023-04-06T14:04:39;26.10;40.60
30381;DHT22;17169;50.966;11.038;2023-04-06T14:07:43;27.20;39.00
30381;DHT22;17169;50.966;11.038;2023-04-06T14:10:45;28.10;38.60
30381;DHT22;17169;50.966;11.038;2023-04-06T14:13:48;28.40;36.30
30381;DHT22;17169;50.966;11.038;2023-04-06T14:16:50;28.60;35.50
30381;DHT22;17169;50.966;11.038;2023-04-06T14:19:52;28.30;34.60
30381;DHT22;17169;50.966;11.038;2023-04-06T14:22:56;28.30;35.80
30381;DHT22;17169;50.966;11.038;2023-04-06T14:26:02;28.50;35.10
30381;DHT22;17169;50.966;11.038;2023-04-06T14:29:06;29.20;35.70
30381;DHT22;17169;50.966;11.038;2023-04-06T14:32:08;30.20;35.70
30381;DHT22;17169;50.966;11.038;2023-04-06T14:35:11;30.70;33.40
30381;DHT22;17169;50.966;11.038;2023-04-06T14:38:15;31.10;33.60
30381;DHT22;17169;50.966;11.038;2023-04-06T14:41:18;32.00;32.50
30381;DHT22;17169;50.966;11.038;2023-04-06T14:44:21;31.30;31.90
30381;DHT22;17169;50.966;11.038;2023-04-06T14:47:23;31.20;32.60
30381;DHT22;17169;50.966;11.038;2023-04-06T14:50:25;31.60;31.40
30381;DHT22;17169;50.966;11.038;2023-04-06T14:53:29;31.10;31.60
30381;DHT22;17169;50.966;11.038;2023-04-06T14:56:32;31.60;31.90
30381;DHT22;17169;50.966;11.038;2023-04-06T14:59:34;32.30;31.10
30381;DHT22;17169;50.966;11.038;2023-04-06T15:02:36;32.10;31.00
30381;DHT22;17169;50.966;11.038;2023-04-06T15:05:39;31.90;30.90
30381;DHT22;17169;50.966;11.038;2023-04-06T15:08:43;32.10;31.00
30381;DHT22;17169;50.966;11.038;2023-04-06T15:11:46;32.30;31.10
30381;DHT22;17169;50.966;11.038;2023-04-06T15:14:48;32.70;31.20
30381;DHT22;17169;50.966;11.038;2023-04-06T15:17:51;33.10;30.10
30381;DHT22;17169;50.966;11.038;2023-04-06T15:20:53;32.70;30.30
30381;DHT22;17169;50.966;11.038;2023-04-06T15:23:57;33.30;30.20
30381;DHT22;17169;50.966;11.038;2023-04-06T15:26:59;33.90;30.20
30381;DHT22;17169;50.966;11.038;2023-04-06T15:30:02;32.40;29.80
30381;DHT22;17169;50.966;11.038;2023-04-06T15:33:06;31.00;29.80
30381;DHT22;17169;50.966;11.038;2023-04-06T15:36:22;30.60;30.80
30381;DHT22;17169;50.966;11.038;2023-04-06T15:39:26;31.10;30.60
30381;DHT22;17169;50.966;11.038;2023-04-06T15:42:29;31.30;30.10
30381;DHT22;17169;50.966;11.038;2023-04-06T15:45:31;31.90;30.50
30381;DHT22;17169;50.966;11.038;2023-04-06T15:48:34;32.40;30.20
30381;DHT22;17169;50.966;11.038;2023-04-06T15:51:36;31.50;29.80
30381;DHT22;17169;50.966;11.038;2023-04-06T15:54:40;29.00;30.00
30381;DHT22;17169;50.966;11.038;2023-04-06T15:57:42;27.30;31.30
30381;DHT22;17169;50.966;11.038;2023-04-06T16:00:44;25.80;31.60
30381;DHT22;17169;50.966;11.038;2023-04-06T16:03:47;24.20;32.30
30381;DHT22;17169;50.966;11.038;2023-04-06T16:06:49;23.10;32.90
30381;DHT22;17169;50.966;11.038;2023-04-06T16:09:53;22.10;33.90
30381;DHT22;17169;50.966;11.038;2023-04-06T16:12:55;21.30;35.00
30381;DHT22;17169;50.966;11.038;2023-04-06T16:15:58;20.50;35.40
30381;DHT22;17169;50.966;11.038;2023-04-06T16:19:00;19.70;36.10
30381;DHT22;17169;50.966;11.038;2023-04-06T16:22:02;18.90;37.10
30381;DHT22;17169;50.966;11.038;2023-04-06T16:25:07;18.40;37.90
30381;DHT22;17169;50.966;11.038;2023-04-06T16:28:10;18.10;38.80
30381;DHT22;17169;50.966;11.038;2023-04-06T16:31:19;17.70;39.00
30381;DHT22;17169;50.966;11.038;2023-04-06T16:34:22;17.30;39.20
30381;DHT22;17169;50.966;11.038;2023-04-06T16:37:25;17.00;39.80
30381;DHT22;17169;50.966;11.038;2023-04-06T16:40:30;16.70;40.40
30381;DHT22;17169;50.966;11.038;2023-04-06T16:43:33;16.50;41.10
30381;DHT22;17169;50.966;11.038;2023-04-06T16:46:35;16.20;41.40
30381;DHT22;17169;50.966;11.038;2023-04-06T16:49:39;16.00;41.50
30381;DHT22;17169;50.966;11.038;2023-04-06T16:52:41;15.80;42.20
30381;DHT22;17169;50.966;11.038;2023-04-06T16:55:45;15.70;42.30
30381;DHT22;17169;50.966;11.038;2023-04-06T16:58:47;15.50;42.50
30381;DHT22;17169;50.966;11.038;2023-04-06T17:01:50;15.30;42.90
30381;DHT22;17169;50.966;11.038;2023-04-06T17:04:52;15.20;43.20
30381;DHT22;17169;50.966;11.038;2023-04-06T17:07:54;15.00;43.50
30381;DHT22;17169;50.966;11.038;2023-04-06T17:10:58;14.90;43.80
30381;DHT22;17169;50.966;11.038;2023-04-06T17:14:00;14.70;43.90
30381;DHT22;17169;50.966;11.038;2023-04-06T17:17:03;14.50;44.00
30381;DHT22;17169;50.966;11.038;2023-04-06T17:20:07;14.40;44.20
30381;DHT22;17169;50.966;11.038;2023-04-06T17:23:09;14.30;44.60
30381;DHT22;17169;50.966;11.038;2023-04-06T17:26:13;14.20;44.70
30381;DHT22;17169;50.966;11.038;2023-04-06T17:29:16;14.10;44.60
30381;DHT22;17169;50.966;11.038;2023-04-06T17:32:18;13.90;45.00
30381;DHT22;17169;50.966;11.038;2023-04-06T17:35:22;13.80;45.40
30381;DHT22;17169;50.966;11.038;2023-04-06T17:38:24;13.70;45.10
30381;DHT22;17169;50.966;11.038;2023-04-06T17:41:28;13.50;45.40
30381;DHT22;17169;50.966;11.038;2023-04-06T17:44:32;13.40;45.60
30381;DHT22;17169;50.966;11.038;2023-04-06T17:47:35;13.20;46.20
30381;DHT22;17169;50.966;11.038;2023-04-06T17:50:37;13.10;46.60
30381;DHT22;17169;50.966;11.038;2023-04-06T17:53:40;12.90;47.50
30381;DHT22;17169;50.966;11.038;2023-04-06T17:56:43;12.80;48.10
30381;DHT22;17169;50.966;11.038;2023-04-06T17:59:48;12.60;48.40
30381;DHT22;17169;50.966;11.038;2023-04-06T18:02:52;12.50;48.90
30381;DHT22;17169;50.966;11.038;2023-04-06T18:05:54;12.40;49.60
30381;DHT22;17169;50.966;11.038;2023-04-06T18:08:58;12.20;49.70
30381;DHT22;17169;50.966;11.038;2023-04-06T18:12:02;12.10;50.20
30381;DHT22;17169;50.966;11.038;2023-04-06T18:15:05;11.90;50.90
30381;DHT22;17169;50.966;11.038;2023-04-06T18:18:08;11.80;51.30
30381;DHT22;17169;50.966;11.038;2023-04-06T18:21:10;11.60;51.90
30381;DHT22;17169;50.966;11.038;2023-04-06T18:24:12;11.50;52.00
30381;DHT22;17169;50.966;11.038;2023-04-06T18:27:16;11.40;52.10
30381;DHT22;17169;50.966;11.038;2023-04-06T18:30:20;11.30;52.70
30381;DHT22;17169;50.966;11.038;2023-04-06T18:33:23;11.10;53.40
30381;DHT22;17169;50.966;11.038;2023-04-06T18:36:27;11.00;53.90
30381;DHT22;17169;50.966;11.038;2023-04-06T18:39:29;10.90;54.20
30381;DHT22;17169;50.966;11.038;2023-04-06T18:42:34;10.70;54.90
30381;DHT22;17169;50.966;11.038;2023-04-06T18:45:37;10.60;55.70
30381;DHT22;17169;50.966;11.038;2023-04-06T18:48:39;10.50;55.80
30381;DHT22;17169;50.966;11.038;2023-04-06T18:51:42;10.40;55.80
30381;DHT22;17169;50.966;11.038;2023-04-06T18:54:44;10.30;55.80
30381;DHT22;17169;50.966;11.038;2023-04-06T18:57:48;10.20;56.20
30381;DHT22;17169;50.966;11.038;2023-04-06T19:00:51;10.10;56.60
30381;DHT22;17169;50.966;11.038;2023-04-06T19:03:54;10.10;56.90
30381;DHT22;17169;50.966;11.038;2023-04-06T19:06:56;10.00;57.20